﻿<?xml version="1.0" encoding="UTF-8" standalone="no" ?>
<gpx xmlns="http://www.topografix.com/GPX/1/1" creator="CompeGPS" version="1.1" xmlns:xsi="http://www.w3.org/2001/XMLSchema-instance" xsi:schemaLocation="http://www.topografix.com/GPX/1/1 http://www.topografix.com/GPX/1/1/gpx.xsd http://www.garmin.com/xmlschemas/GpxExtensions/v3 http://www.garmin.com/xmlschemas/GpxExtensionsv3.xsd http://www.garmin.com/xmlschemas/TrackPointExtension/v1 http://www.garmin.com/xmlschemas/TrackPointExtensionv1.xsd" xmlns:gpxtpx="http://www.garmin.com/xmlschemas/TrackPointExtension/v1">
  <metadata>
    <link href="http://www.compegps.com">
      <text>CompeGPS TEAM, SL</text>
    </link>
    <time>2014-04-18T10:53:36Z</time>
    <bounds maxlat="43.447002" maxlon="1.614201" minlat="43.433579" minlon="1.588231"/>
  </metadata>
  <trk>
    <name>ayguevives2</name>
    <trkseg>
      <trkpt lat="43.438242" lon="1.596792">
        <ele>159.8</ele>
        <time>2014-04-17T17:37:17Z</time>
      </trkpt>
      <trkpt lat="43.438180" lon="1.596938">
        <ele>158.8</ele>
        <time>2014-04-17T17:37:35Z</time>
      </trkpt>
      <trkpt lat="43.438084" lon="1.596966">
        <ele>158.7</ele>
        <time>2014-04-17T17:37:51Z</time>
      </trkpt>
      <trkpt lat="43.437980" lon="1.597024">
        <ele>158.4</ele>
        <time>2014-04-17T17:38:04Z</time>
      </trkpt>
      <trkpt lat="43.437934" lon="1.597137">
        <ele>158.2</ele>
        <time>2014-04-17T17:38:15Z</time>
      </trkpt>
      <trkpt lat="43.437893" lon="1.597283">
        <ele>157.7</ele>
        <time>2014-04-17T17:38:27Z</time>
      </trkpt>
      <trkpt lat="43.437849" lon="1.597412">
        <ele>157.8</ele>
        <time>2014-04-17T17:38:38Z</time>
      </trkpt>
      <trkpt lat="43.437768" lon="1.597500">
        <ele>157.3</ele>
        <time>2014-04-17T17:38:51Z</time>
      </trkpt>
      <trkpt lat="43.437642" lon="1.597497">
        <ele>157.1</ele>
        <time>2014-04-17T17:39:04Z</time>
      </trkpt>
      <trkpt lat="43.437544" lon="1.597548">
        <ele>157.4</ele>
        <time>2014-04-17T17:39:14Z</time>
      </trkpt>
      <trkpt lat="43.437435" lon="1.597594">
        <ele>157.3</ele>
        <time>2014-04-17T17:39:24Z</time>
      </trkpt>
      <trkpt lat="43.437330" lon="1.597618">
        <ele>157.3</ele>
        <time>2014-04-17T17:39:34Z</time>
      </trkpt>
      <trkpt lat="43.437226" lon="1.597674">
        <ele>157.6</ele>
        <time>2014-04-17T17:39:45Z</time>
      </trkpt>
      <trkpt lat="43.437141" lon="1.597757">
        <ele>157.7</ele>
        <time>2014-04-17T17:39:55Z</time>
      </trkpt>
      <trkpt lat="43.437077" lon="1.597881">
        <ele>157.6</ele>
        <time>2014-04-17T17:40:05Z</time>
      </trkpt>
      <trkpt lat="43.437005" lon="1.597990">
        <ele>157.8</ele>
        <time>2014-04-17T17:40:15Z</time>
      </trkpt>
      <trkpt lat="43.436922" lon="1.598106">
        <ele>157.8</ele>
        <time>2014-04-17T17:40:24Z</time>
      </trkpt>
      <trkpt lat="43.436855" lon="1.598207">
        <ele>158.0</ele>
        <time>2014-04-17T17:40:33Z</time>
      </trkpt>
      <trkpt lat="43.436778" lon="1.598359">
        <ele>158.3</ele>
        <time>2014-04-17T17:40:45Z</time>
      </trkpt>
      <trkpt lat="43.436711" lon="1.598472">
        <ele>158.4</ele>
        <time>2014-04-17T17:40:55Z</time>
      </trkpt>
      <trkpt lat="43.436620" lon="1.598578">
        <ele>158.6</ele>
        <time>2014-04-17T17:41:05Z</time>
      </trkpt>
      <trkpt lat="43.436539" lon="1.598701">
        <ele>159.0</ele>
        <time>2014-04-17T17:41:17Z</time>
      </trkpt>
      <trkpt lat="43.436463" lon="1.598803">
        <ele>159.2</ele>
        <time>2014-04-17T17:41:27Z</time>
      </trkpt>
      <trkpt lat="43.436406" lon="1.598927">
        <ele>159.7</ele>
        <time>2014-04-17T17:41:36Z</time>
      </trkpt>
      <trkpt lat="43.436419" lon="1.599081">
        <ele>159.9</ele>
        <time>2014-04-17T17:41:44Z</time>
      </trkpt>
      <trkpt lat="43.436497" lon="1.599173">
        <ele>159.9</ele>
        <time>2014-04-17T17:41:55Z</time>
      </trkpt>
      <trkpt lat="43.436617" lon="1.599239">
        <ele>159.4</ele>
        <time>2014-04-17T17:42:08Z</time>
      </trkpt>
      <trkpt lat="43.436661" lon="1.599376">
        <ele>159.0</ele>
        <time>2014-04-17T17:42:19Z</time>
      </trkpt>
      <trkpt lat="43.436711" lon="1.599489">
        <ele>158.7</ele>
        <time>2014-04-17T17:42:30Z</time>
      </trkpt>
      <trkpt lat="43.436763" lon="1.599631">
        <ele>158.6</ele>
        <time>2014-04-17T17:42:40Z</time>
      </trkpt>
      <trkpt lat="43.436814" lon="1.599756">
        <ele>158.0</ele>
        <time>2014-04-17T17:42:51Z</time>
      </trkpt>
      <trkpt lat="43.436825" lon="1.599899">
        <ele>158.1</ele>
        <time>2014-04-17T17:43:01Z</time>
      </trkpt>
      <trkpt lat="43.436789" lon="1.600033">
        <ele>158.1</ele>
        <time>2014-04-17T17:43:10Z</time>
      </trkpt>
      <trkpt lat="43.436753" lon="1.600165">
        <ele>158.2</ele>
        <time>2014-04-17T17:43:21Z</time>
      </trkpt>
      <trkpt lat="43.436704" lon="1.600313">
        <ele>158.4</ele>
        <time>2014-04-17T17:43:32Z</time>
      </trkpt>
      <trkpt lat="43.436659" lon="1.600442">
        <ele>158.5</ele>
        <time>2014-04-17T17:43:42Z</time>
      </trkpt>
      <trkpt lat="43.436615" lon="1.600568">
        <ele>158.5</ele>
        <time>2014-04-17T17:43:51Z</time>
      </trkpt>
      <trkpt lat="43.436527" lon="1.600631">
        <ele>158.8</ele>
        <time>2014-04-17T17:43:59Z</time>
      </trkpt>
      <trkpt lat="43.436438" lon="1.600697">
        <ele>159.1</ele>
        <time>2014-04-17T17:44:07Z</time>
      </trkpt>
      <trkpt lat="43.436360" lon="1.600765">
        <ele>159.2</ele>
        <time>2014-04-17T17:44:15Z</time>
      </trkpt>
      <trkpt lat="43.436270" lon="1.600826">
        <ele>159.5</ele>
        <time>2014-04-17T17:44:24Z</time>
      </trkpt>
      <trkpt lat="43.436177" lon="1.600894">
        <ele>159.8</ele>
        <time>2014-04-17T17:44:33Z</time>
      </trkpt>
      <trkpt lat="43.436085" lon="1.600964">
        <ele>160.0</ele>
        <time>2014-04-17T17:44:42Z</time>
      </trkpt>
      <trkpt lat="43.436029" lon="1.601093">
        <ele>160.2</ele>
        <time>2014-04-17T17:44:50Z</time>
      </trkpt>
      <trkpt lat="43.436043" lon="1.601237">
        <ele>160.6</ele>
        <time>2014-04-17T17:44:59Z</time>
      </trkpt>
      <trkpt lat="43.436114" lon="1.601360">
        <ele>160.4</ele>
        <time>2014-04-17T17:45:09Z</time>
      </trkpt>
      <trkpt lat="43.436192" lon="1.601469">
        <ele>159.9</ele>
        <time>2014-04-17T17:45:20Z</time>
      </trkpt>
      <trkpt lat="43.436289" lon="1.601541">
        <ele>159.6</ele>
        <time>2014-04-17T17:45:30Z</time>
      </trkpt>
      <trkpt lat="43.436377" lon="1.601657">
        <ele>159.2</ele>
        <time>2014-04-17T17:45:42Z</time>
      </trkpt>
      <trkpt lat="43.436474" lon="1.601751">
        <ele>159.1</ele>
        <time>2014-04-17T17:45:54Z</time>
      </trkpt>
      <trkpt lat="43.436578" lon="1.601878">
        <ele>158.6</ele>
        <time>2014-04-17T17:46:05Z</time>
      </trkpt>
      <trkpt lat="43.436649" lon="1.601996">
        <ele>158.5</ele>
        <time>2014-04-17T17:46:15Z</time>
      </trkpt>
      <trkpt lat="43.436756" lon="1.602033">
        <ele>158.4</ele>
        <time>2014-04-17T17:46:24Z</time>
      </trkpt>
      <trkpt lat="43.436854" lon="1.602074">
        <ele>158.1</ele>
        <time>2014-04-17T17:46:33Z</time>
      </trkpt>
      <trkpt lat="43.436919" lon="1.602184">
        <ele>158.2</ele>
        <time>2014-04-17T17:46:42Z</time>
      </trkpt>
      <trkpt lat="43.436982" lon="1.602270">
        <ele>158.3</ele>
        <time>2014-04-17T17:46:51Z</time>
      </trkpt>
      <trkpt lat="43.437064" lon="1.602347">
        <ele>158.3</ele>
        <time>2014-04-17T17:47:02Z</time>
      </trkpt>
      <trkpt lat="43.437127" lon="1.602423">
        <ele>158.4</ele>
        <time>2014-04-17T17:47:18Z</time>
      </trkpt>
      <trkpt lat="43.437220" lon="1.602498">
        <ele>158.2</ele>
        <time>2014-04-17T17:47:28Z</time>
      </trkpt>
      <trkpt lat="43.437313" lon="1.602568">
        <ele>158.1</ele>
        <time>2014-04-17T17:47:38Z</time>
      </trkpt>
      <trkpt lat="43.437404" lon="1.602647">
        <ele>157.8</ele>
        <time>2014-04-17T17:47:48Z</time>
      </trkpt>
      <trkpt lat="43.437489" lon="1.602734">
        <ele>157.7</ele>
        <time>2014-04-17T17:47:58Z</time>
      </trkpt>
      <trkpt lat="43.437565" lon="1.602813">
        <ele>157.9</ele>
        <time>2014-04-17T17:48:07Z</time>
      </trkpt>
      <trkpt lat="43.437651" lon="1.602891">
        <ele>158.4</ele>
        <time>2014-04-17T17:48:16Z</time>
      </trkpt>
      <trkpt lat="43.437749" lon="1.602987">
        <ele>158.4</ele>
        <time>2014-04-17T17:48:26Z</time>
      </trkpt>
      <trkpt lat="43.437839" lon="1.603062">
        <ele>158.7</ele>
        <time>2014-04-17T17:48:35Z</time>
      </trkpt>
      <trkpt lat="43.437929" lon="1.603143">
        <ele>158.6</ele>
        <time>2014-04-17T17:48:44Z</time>
      </trkpt>
      <trkpt lat="43.438014" lon="1.603202">
        <ele>158.8</ele>
        <time>2014-04-17T17:48:52Z</time>
      </trkpt>
      <trkpt lat="43.438083" lon="1.603290">
        <ele>159.1</ele>
        <time>2014-04-17T17:49:01Z</time>
      </trkpt>
      <trkpt lat="43.438134" lon="1.603399">
        <ele>159.0</ele>
        <time>2014-04-17T17:49:11Z</time>
      </trkpt>
      <trkpt lat="43.438135" lon="1.603532">
        <ele>159.1</ele>
        <time>2014-04-17T17:49:20Z</time>
      </trkpt>
      <trkpt lat="43.438119" lon="1.603659">
        <ele>159.3</ele>
        <time>2014-04-17T17:49:29Z</time>
      </trkpt>
      <trkpt lat="43.438110" lon="1.603783">
        <ele>159.2</ele>
        <time>2014-04-17T17:49:38Z</time>
      </trkpt>
      <trkpt lat="43.438098" lon="1.603904">
        <ele>159.3</ele>
        <time>2014-04-17T17:49:46Z</time>
      </trkpt>
      <trkpt lat="43.438086" lon="1.604026">
        <ele>159.5</ele>
        <time>2014-04-17T17:49:54Z</time>
      </trkpt>
      <trkpt lat="43.438080" lon="1.604140">
        <ele>159.8</ele>
        <time>2014-04-17T17:50:02Z</time>
      </trkpt>
      <trkpt lat="43.438069" lon="1.604275">
        <ele>160.2</ele>
        <time>2014-04-17T17:50:12Z</time>
      </trkpt>
      <trkpt lat="43.438063" lon="1.604400">
        <ele>160.4</ele>
        <time>2014-04-17T17:50:21Z</time>
      </trkpt>
      <trkpt lat="43.438047" lon="1.604514">
        <ele>160.7</ele>
        <time>2014-04-17T17:50:29Z</time>
      </trkpt>
      <trkpt lat="43.438039" lon="1.604649">
        <ele>161.1</ele>
        <time>2014-04-17T17:50:38Z</time>
      </trkpt>
      <trkpt lat="43.438032" lon="1.604788">
        <ele>161.7</ele>
        <time>2014-04-17T17:50:47Z</time>
      </trkpt>
      <trkpt lat="43.438021" lon="1.604916">
        <ele>161.9</ele>
        <time>2014-04-17T17:50:56Z</time>
      </trkpt>
      <trkpt lat="43.438012" lon="1.605035">
        <ele>162.1</ele>
        <time>2014-04-17T17:51:05Z</time>
      </trkpt>
      <trkpt lat="43.438007" lon="1.605169">
        <ele>162.6</ele>
        <time>2014-04-17T17:51:15Z</time>
      </trkpt>
      <trkpt lat="43.437986" lon="1.605301">
        <ele>163.2</ele>
        <time>2014-04-17T17:51:24Z</time>
      </trkpt>
      <trkpt lat="43.437943" lon="1.605412">
        <ele>163.8</ele>
        <time>2014-04-17T17:51:33Z</time>
      </trkpt>
      <trkpt lat="43.437896" lon="1.605523">
        <ele>164.5</ele>
        <time>2014-04-17T17:51:43Z</time>
      </trkpt>
      <trkpt lat="43.437851" lon="1.605633">
        <ele>164.9</ele>
        <time>2014-04-17T17:51:52Z</time>
      </trkpt>
      <trkpt lat="43.437793" lon="1.605739">
        <ele>165.3</ele>
        <time>2014-04-17T17:52:01Z</time>
      </trkpt>
      <trkpt lat="43.437750" lon="1.605860">
        <ele>165.7</ele>
        <time>2014-04-17T17:52:10Z</time>
      </trkpt>
      <trkpt lat="43.437705" lon="1.605962">
        <ele>165.9</ele>
        <time>2014-04-17T17:52:18Z</time>
      </trkpt>
      <trkpt lat="43.437667" lon="1.606067">
        <ele>166.0</ele>
        <time>2014-04-17T17:52:26Z</time>
      </trkpt>
      <trkpt lat="43.437618" lon="1.606176">
        <ele>166.2</ele>
        <time>2014-04-17T17:52:35Z</time>
      </trkpt>
      <trkpt lat="43.437559" lon="1.606293">
        <ele>166.3</ele>
        <time>2014-04-17T17:52:44Z</time>
      </trkpt>
      <trkpt lat="43.437509" lon="1.606403">
        <ele>166.6</ele>
        <time>2014-04-17T17:52:53Z</time>
      </trkpt>
      <trkpt lat="43.437464" lon="1.606508">
        <ele>166.6</ele>
        <time>2014-04-17T17:53:02Z</time>
      </trkpt>
      <trkpt lat="43.437424" lon="1.606622">
        <ele>166.8</ele>
        <time>2014-04-17T17:53:10Z</time>
      </trkpt>
      <trkpt lat="43.437382" lon="1.606723">
        <ele>166.4</ele>
        <time>2014-04-17T17:53:18Z</time>
      </trkpt>
      <trkpt lat="43.437323" lon="1.606822">
        <ele>166.6</ele>
        <time>2014-04-17T17:53:27Z</time>
      </trkpt>
      <trkpt lat="43.437276" lon="1.606929">
        <ele>166.7</ele>
        <time>2014-04-17T17:53:35Z</time>
      </trkpt>
      <trkpt lat="43.437223" lon="1.607048">
        <ele>166.9</ele>
        <time>2014-04-17T17:53:44Z</time>
      </trkpt>
      <trkpt lat="43.437177" lon="1.607165">
        <ele>167.1</ele>
        <time>2014-04-17T17:53:53Z</time>
      </trkpt>
      <trkpt lat="43.437135" lon="1.607262">
        <ele>167.4</ele>
        <time>2014-04-17T17:54:00Z</time>
      </trkpt>
      <trkpt lat="43.437080" lon="1.607372">
        <ele>167.4</ele>
        <time>2014-04-17T17:54:08Z</time>
      </trkpt>
      <trkpt lat="43.437031" lon="1.607478">
        <ele>167.6</ele>
        <time>2014-04-17T17:54:17Z</time>
      </trkpt>
      <trkpt lat="43.436979" lon="1.607588">
        <ele>167.7</ele>
        <time>2014-04-17T17:54:26Z</time>
      </trkpt>
      <trkpt lat="43.436923" lon="1.607692">
        <ele>167.9</ele>
        <time>2014-04-17T17:54:34Z</time>
      </trkpt>
      <trkpt lat="43.436875" lon="1.607795">
        <ele>168.3</ele>
        <time>2014-04-17T17:54:43Z</time>
      </trkpt>
      <trkpt lat="43.436819" lon="1.607914">
        <ele>168.6</ele>
        <time>2014-04-17T17:54:53Z</time>
      </trkpt>
      <trkpt lat="43.436775" lon="1.608026">
        <ele>169.1</ele>
        <time>2014-04-17T17:55:02Z</time>
      </trkpt>
      <trkpt lat="43.436718" lon="1.608135">
        <ele>169.6</ele>
        <time>2014-04-17T17:55:11Z</time>
      </trkpt>
      <trkpt lat="43.436675" lon="1.608254">
        <ele>170.1</ele>
        <time>2014-04-17T17:55:19Z</time>
      </trkpt>
      <trkpt lat="43.436623" lon="1.608358">
        <ele>170.6</ele>
        <time>2014-04-17T17:55:27Z</time>
      </trkpt>
      <trkpt lat="43.436582" lon="1.608457">
        <ele>171.3</ele>
        <time>2014-04-17T17:55:35Z</time>
      </trkpt>
      <trkpt lat="43.436542" lon="1.608561">
        <ele>172.4</ele>
        <time>2014-04-17T17:55:44Z</time>
      </trkpt>
      <trkpt lat="43.436494" lon="1.608658">
        <ele>173.8</ele>
        <time>2014-04-17T17:55:53Z</time>
      </trkpt>
      <trkpt lat="43.436445" lon="1.608760">
        <ele>174.4</ele>
        <time>2014-04-17T17:56:03Z</time>
      </trkpt>
      <trkpt lat="43.436394" lon="1.608869">
        <ele>175.6</ele>
        <time>2014-04-17T17:56:12Z</time>
      </trkpt>
      <trkpt lat="43.436345" lon="1.608976">
        <ele>176.4</ele>
        <time>2014-04-17T17:56:22Z</time>
      </trkpt>
      <trkpt lat="43.436285" lon="1.609073">
        <ele>177.1</ele>
        <time>2014-04-17T17:56:32Z</time>
      </trkpt>
      <trkpt lat="43.436249" lon="1.609210">
        <ele>177.7</ele>
        <time>2014-04-17T17:56:43Z</time>
      </trkpt>
      <trkpt lat="43.436309" lon="1.609330">
        <ele>178.2</ele>
        <time>2014-04-17T17:56:55Z</time>
      </trkpt>
      <trkpt lat="43.436372" lon="1.609422">
        <ele>177.9</ele>
        <time>2014-04-17T17:57:05Z</time>
      </trkpt>
      <trkpt lat="43.436453" lon="1.609521">
        <ele>178.0</ele>
        <time>2014-04-17T17:57:15Z</time>
      </trkpt>
      <trkpt lat="43.436524" lon="1.609594">
        <ele>178.2</ele>
        <time>2014-04-17T17:57:24Z</time>
      </trkpt>
      <trkpt lat="43.436594" lon="1.609679">
        <ele>178.7</ele>
        <time>2014-04-17T17:57:33Z</time>
      </trkpt>
      <trkpt lat="43.436668" lon="1.609757">
        <ele>178.7</ele>
        <time>2014-04-17T17:57:42Z</time>
      </trkpt>
      <trkpt lat="43.436737" lon="1.609856">
        <ele>179.0</ele>
        <time>2014-04-17T17:57:51Z</time>
      </trkpt>
      <trkpt lat="43.436812" lon="1.609938">
        <ele>179.6</ele>
        <time>2014-04-17T17:57:59Z</time>
      </trkpt>
      <trkpt lat="43.436892" lon="1.610025">
        <ele>180.2</ele>
        <time>2014-04-17T17:58:08Z</time>
      </trkpt>
      <trkpt lat="43.436957" lon="1.610111">
        <ele>180.7</ele>
        <time>2014-04-17T17:58:15Z</time>
      </trkpt>
      <trkpt lat="43.437027" lon="1.610213">
        <ele>180.9</ele>
        <time>2014-04-17T17:58:24Z</time>
      </trkpt>
      <trkpt lat="43.437086" lon="1.610322">
        <ele>181.3</ele>
        <time>2014-04-17T17:58:34Z</time>
      </trkpt>
      <trkpt lat="43.437113" lon="1.610445">
        <ele>181.6</ele>
        <time>2014-04-17T17:58:43Z</time>
      </trkpt>
      <trkpt lat="43.437123" lon="1.610573">
        <ele>182.0</ele>
        <time>2014-04-17T17:58:51Z</time>
      </trkpt>
      <trkpt lat="43.437120" lon="1.610698">
        <ele>182.3</ele>
        <time>2014-04-17T17:59:00Z</time>
      </trkpt>
      <trkpt lat="43.437088" lon="1.610811">
        <ele>182.3</ele>
        <time>2014-04-17T17:59:08Z</time>
      </trkpt>
      <trkpt lat="43.437048" lon="1.610941">
        <ele>182.0</ele>
        <time>2014-04-17T17:59:20Z</time>
      </trkpt>
      <trkpt lat="43.437013" lon="1.611054">
        <ele>181.9</ele>
        <time>2014-04-17T17:59:29Z</time>
      </trkpt>
      <trkpt lat="43.436979" lon="1.611171">
        <ele>181.8</ele>
        <time>2014-04-17T17:59:38Z</time>
      </trkpt>
      <trkpt lat="43.436947" lon="1.611299">
        <ele>181.7</ele>
        <time>2014-04-17T17:59:47Z</time>
      </trkpt>
      <trkpt lat="43.436910" lon="1.611432">
        <ele>181.6</ele>
        <time>2014-04-17T17:59:57Z</time>
      </trkpt>
      <trkpt lat="43.436874" lon="1.611557">
        <ele>181.2</ele>
        <time>2014-04-17T18:00:06Z</time>
      </trkpt>
      <trkpt lat="43.436859" lon="1.611682">
        <ele>180.9</ele>
        <time>2014-04-17T18:00:15Z</time>
      </trkpt>
      <trkpt lat="43.436831" lon="1.611801">
        <ele>180.9</ele>
        <time>2014-04-17T18:00:24Z</time>
      </trkpt>
      <trkpt lat="43.436801" lon="1.611918">
        <ele>180.7</ele>
        <time>2014-04-17T18:00:34Z</time>
      </trkpt>
      <trkpt lat="43.436778" lon="1.612053">
        <ele>179.7</ele>
        <time>2014-04-17T18:00:44Z</time>
      </trkpt>
      <trkpt lat="43.436742" lon="1.612168">
        <ele>178.9</ele>
        <time>2014-04-17T18:00:53Z</time>
      </trkpt>
      <trkpt lat="43.436717" lon="1.612304">
        <ele>177.4</ele>
        <time>2014-04-17T18:01:04Z</time>
      </trkpt>
      <trkpt lat="43.436675" lon="1.612426">
        <ele>176.3</ele>
        <time>2014-04-17T18:01:13Z</time>
      </trkpt>
      <trkpt lat="43.436634" lon="1.612535">
        <ele>175.7</ele>
        <time>2014-04-17T18:01:20Z</time>
      </trkpt>
      <trkpt lat="43.436599" lon="1.612663">
        <ele>174.9</ele>
        <time>2014-04-17T18:01:28Z</time>
      </trkpt>
      <trkpt lat="43.436578" lon="1.612785">
        <ele>173.6</ele>
        <time>2014-04-17T18:01:36Z</time>
      </trkpt>
      <trkpt lat="43.436566" lon="1.612905">
        <ele>172.2</ele>
        <time>2014-04-17T18:01:45Z</time>
      </trkpt>
      <trkpt lat="43.436533" lon="1.613023">
        <ele>170.9</ele>
        <time>2014-04-17T18:01:54Z</time>
      </trkpt>
      <trkpt lat="43.436498" lon="1.613146">
        <ele>169.4</ele>
        <time>2014-04-17T18:02:03Z</time>
      </trkpt>
      <trkpt lat="43.436459" lon="1.613294">
        <ele>168.4</ele>
        <time>2014-04-17T18:02:12Z</time>
      </trkpt>
      <trkpt lat="43.436425" lon="1.613430">
        <ele>167.5</ele>
        <time>2014-04-17T18:02:22Z</time>
      </trkpt>
      <trkpt lat="43.436395" lon="1.613555">
        <ele>166.7</ele>
        <time>2014-04-17T18:02:31Z</time>
      </trkpt>
      <trkpt lat="43.436359" lon="1.613685">
        <ele>166.0</ele>
        <time>2014-04-17T18:02:41Z</time>
      </trkpt>
      <trkpt lat="43.436334" lon="1.613824">
        <ele>165.6</ele>
        <time>2014-04-17T18:02:50Z</time>
      </trkpt>
      <trkpt lat="43.436297" lon="1.613964">
        <ele>165.0</ele>
        <time>2014-04-17T18:02:59Z</time>
      </trkpt>
      <trkpt lat="43.436303" lon="1.614108">
        <ele>164.3</ele>
        <time>2014-04-17T18:03:08Z</time>
      </trkpt>
      <trkpt lat="43.436382" lon="1.614199">
        <ele>163.5</ele>
        <time>2014-04-17T18:03:18Z</time>
      </trkpt>
      <trkpt lat="43.436485" lon="1.614201">
        <ele>163.1</ele>
        <time>2014-04-17T18:03:26Z</time>
      </trkpt>
      <trkpt lat="43.436577" lon="1.614181">
        <ele>162.5</ele>
        <time>2014-04-17T18:03:38Z</time>
      </trkpt>
      <trkpt lat="43.436678" lon="1.614158">
        <ele>161.6</ele>
        <time>2014-04-17T18:03:48Z</time>
      </trkpt>
      <trkpt lat="43.436776" lon="1.614159">
        <ele>160.9</ele>
        <time>2014-04-17T18:03:57Z</time>
      </trkpt>
      <trkpt lat="43.436877" lon="1.614148">
        <ele>160.0</ele>
        <time>2014-04-17T18:04:07Z</time>
      </trkpt>
      <trkpt lat="43.436975" lon="1.614145">
        <ele>159.3</ele>
        <time>2014-04-17T18:04:16Z</time>
      </trkpt>
      <trkpt lat="43.437083" lon="1.614142">
        <ele>158.5</ele>
        <time>2014-04-17T18:04:26Z</time>
      </trkpt>
      <trkpt lat="43.437183" lon="1.614152">
        <ele>157.2</ele>
        <time>2014-04-17T18:04:36Z</time>
      </trkpt>
      <trkpt lat="43.437288" lon="1.614146">
        <ele>156.8</ele>
        <time>2014-04-17T18:04:46Z</time>
      </trkpt>
      <trkpt lat="43.437373" lon="1.614095">
        <ele>156.7</ele>
        <time>2014-04-17T18:04:55Z</time>
      </trkpt>
      <trkpt lat="43.437455" lon="1.614008">
        <ele>156.5</ele>
        <time>2014-04-17T18:05:02Z</time>
      </trkpt>
      <trkpt lat="43.437547" lon="1.613913">
        <ele>156.1</ele>
        <time>2014-04-17T18:05:11Z</time>
      </trkpt>
      <trkpt lat="43.437611" lon="1.613817">
        <ele>155.9</ele>
        <time>2014-04-17T18:05:21Z</time>
      </trkpt>
      <trkpt lat="43.437682" lon="1.613728">
        <ele>155.6</ele>
        <time>2014-04-17T18:05:29Z</time>
      </trkpt>
      <trkpt lat="43.437752" lon="1.613634">
        <ele>155.4</ele>
        <time>2014-04-17T18:05:38Z</time>
      </trkpt>
      <trkpt lat="43.437827" lon="1.613541">
        <ele>155.3</ele>
        <time>2014-04-17T18:05:47Z</time>
      </trkpt>
      <trkpt lat="43.437892" lon="1.613432">
        <ele>154.9</ele>
        <time>2014-04-17T18:05:56Z</time>
      </trkpt>
      <trkpt lat="43.437970" lon="1.613316">
        <ele>154.8</ele>
        <time>2014-04-17T18:06:05Z</time>
      </trkpt>
      <trkpt lat="43.438047" lon="1.613218">
        <ele>154.8</ele>
        <time>2014-04-17T18:06:14Z</time>
      </trkpt>
      <trkpt lat="43.438122" lon="1.613120">
        <ele>154.6</ele>
        <time>2014-04-17T18:06:22Z</time>
      </trkpt>
      <trkpt lat="43.438203" lon="1.613022">
        <ele>154.6</ele>
        <time>2014-04-17T18:06:32Z</time>
      </trkpt>
      <trkpt lat="43.438271" lon="1.612938">
        <ele>154.5</ele>
        <time>2014-04-17T18:06:39Z</time>
      </trkpt>
      <trkpt lat="43.438370" lon="1.612854">
        <ele>154.6</ele>
        <time>2014-04-17T18:06:49Z</time>
      </trkpt>
      <trkpt lat="43.438443" lon="1.612773">
        <ele>154.6</ele>
        <time>2014-04-17T18:06:56Z</time>
      </trkpt>
      <trkpt lat="43.438541" lon="1.612700">
        <ele>154.6</ele>
        <time>2014-04-17T18:07:07Z</time>
      </trkpt>
      <trkpt lat="43.438615" lon="1.612629">
        <ele>154.5</ele>
        <time>2014-04-17T18:07:16Z</time>
      </trkpt>
      <trkpt lat="43.438714" lon="1.612561">
        <ele>154.5</ele>
        <time>2014-04-17T18:07:24Z</time>
      </trkpt>
      <trkpt lat="43.438800" lon="1.612512">
        <ele>154.2</ele>
        <time>2014-04-17T18:07:32Z</time>
      </trkpt>
      <trkpt lat="43.438898" lon="1.612456">
        <ele>154.1</ele>
        <time>2014-04-17T18:07:40Z</time>
      </trkpt>
      <trkpt lat="43.438986" lon="1.612408">
        <ele>153.9</ele>
        <time>2014-04-17T18:07:48Z</time>
      </trkpt>
      <trkpt lat="43.439082" lon="1.612379">
        <ele>154.0</ele>
        <time>2014-04-17T18:07:55Z</time>
      </trkpt>
      <trkpt lat="43.439172" lon="1.612313">
        <ele>153.9</ele>
        <time>2014-04-17T18:08:04Z</time>
      </trkpt>
      <trkpt lat="43.439259" lon="1.612278">
        <ele>153.8</ele>
        <time>2014-04-17T18:08:10Z</time>
      </trkpt>
      <trkpt lat="43.439330" lon="1.612217">
        <ele>153.8</ele>
        <time>2014-04-17T18:08:17Z</time>
      </trkpt>
      <trkpt lat="43.439409" lon="1.612170">
        <ele>153.5</ele>
        <time>2014-04-17T18:08:24Z</time>
      </trkpt>
      <trkpt lat="43.439507" lon="1.612225">
        <ele>153.8</ele>
        <time>2014-04-17T18:08:33Z</time>
      </trkpt>
      <trkpt lat="43.439585" lon="1.612324">
        <ele>153.9</ele>
        <time>2014-04-17T18:08:42Z</time>
      </trkpt>
      <trkpt lat="43.439632" lon="1.612458">
        <ele>154.7</ele>
        <time>2014-04-17T18:08:52Z</time>
      </trkpt>
      <trkpt lat="43.439696" lon="1.612543">
        <ele>154.4</ele>
        <time>2014-04-17T18:09:02Z</time>
      </trkpt>
      <trkpt lat="43.439804" lon="1.612537">
        <ele>153.6</ele>
        <time>2014-04-17T18:09:10Z</time>
      </trkpt>
      <trkpt lat="43.439919" lon="1.612498">
        <ele>152.9</ele>
        <time>2014-04-17T18:09:21Z</time>
      </trkpt>
      <trkpt lat="43.440015" lon="1.612490">
        <ele>152.4</ele>
        <time>2014-04-17T18:09:30Z</time>
      </trkpt>
      <trkpt lat="43.440110" lon="1.612466">
        <ele>152.0</ele>
        <time>2014-04-17T18:09:40Z</time>
      </trkpt>
      <trkpt lat="43.440228" lon="1.612405">
        <ele>151.8</ele>
        <time>2014-04-17T18:09:50Z</time>
      </trkpt>
      <trkpt lat="43.440315" lon="1.612335">
        <ele>151.8</ele>
        <time>2014-04-17T18:09:59Z</time>
      </trkpt>
      <trkpt lat="43.440407" lon="1.612218">
        <ele>151.0</ele>
        <time>2014-04-17T18:10:10Z</time>
      </trkpt>
      <trkpt lat="43.440483" lon="1.612112">
        <ele>149.8</ele>
        <time>2014-04-17T18:10:23Z</time>
      </trkpt>
      <trkpt lat="43.440583" lon="1.612038">
        <ele>149.6</ele>
        <time>2014-04-17T18:10:35Z</time>
      </trkpt>
      <trkpt lat="43.440585" lon="1.611978">
        <ele>149.6</ele>
        <time>2014-04-17T18:11:26Z</time>
      </trkpt>
      <trkpt lat="43.440674" lon="1.611899">
        <ele>149.2</ele>
        <time>2014-04-17T18:11:36Z</time>
      </trkpt>
      <trkpt lat="43.440752" lon="1.611800">
        <ele>149.4</ele>
        <time>2014-04-17T18:11:45Z</time>
      </trkpt>
      <trkpt lat="43.440829" lon="1.611698">
        <ele>149.6</ele>
        <time>2014-04-17T18:11:55Z</time>
      </trkpt>
      <trkpt lat="43.440906" lon="1.611598">
        <ele>149.7</ele>
        <time>2014-04-17T18:12:06Z</time>
      </trkpt>
      <trkpt lat="43.440971" lon="1.611460">
        <ele>149.7</ele>
        <time>2014-04-17T18:12:16Z</time>
      </trkpt>
      <trkpt lat="43.441036" lon="1.611335">
        <ele>149.7</ele>
        <time>2014-04-17T18:12:27Z</time>
      </trkpt>
      <trkpt lat="43.441107" lon="1.611185">
        <ele>149.5</ele>
        <time>2014-04-17T18:12:38Z</time>
      </trkpt>
      <trkpt lat="43.441179" lon="1.611013">
        <ele>149.6</ele>
        <time>2014-04-17T18:12:49Z</time>
      </trkpt>
      <trkpt lat="43.441244" lon="1.610901">
        <ele>149.6</ele>
        <time>2014-04-17T18:13:00Z</time>
      </trkpt>
      <trkpt lat="43.441296" lon="1.610764">
        <ele>149.7</ele>
        <time>2014-04-17T18:13:11Z</time>
      </trkpt>
      <trkpt lat="43.441341" lon="1.610615">
        <ele>149.6</ele>
        <time>2014-04-17T18:13:22Z</time>
      </trkpt>
      <trkpt lat="43.441387" lon="1.610437">
        <ele>149.6</ele>
        <time>2014-04-17T18:13:34Z</time>
      </trkpt>
      <trkpt lat="43.441436" lon="1.610255">
        <ele>149.5</ele>
        <time>2014-04-17T18:13:46Z</time>
      </trkpt>
      <trkpt lat="43.441490" lon="1.610093">
        <ele>149.5</ele>
        <time>2014-04-17T18:13:58Z</time>
      </trkpt>
      <trkpt lat="43.441547" lon="1.609950">
        <ele>149.7</ele>
        <time>2014-04-17T18:14:09Z</time>
      </trkpt>
      <trkpt lat="43.441594" lon="1.609811">
        <ele>149.6</ele>
        <time>2014-04-17T18:14:19Z</time>
      </trkpt>
      <trkpt lat="43.441661" lon="1.609664">
        <ele>149.7</ele>
        <time>2014-04-17T18:14:31Z</time>
      </trkpt>
      <trkpt lat="43.441723" lon="1.609534">
        <ele>149.6</ele>
        <time>2014-04-17T18:14:42Z</time>
      </trkpt>
      <trkpt lat="43.441795" lon="1.609400">
        <ele>149.8</ele>
        <time>2014-04-17T18:14:53Z</time>
      </trkpt>
      <trkpt lat="43.441864" lon="1.609269">
        <ele>149.7</ele>
        <time>2014-04-17T18:15:04Z</time>
      </trkpt>
      <trkpt lat="43.441940" lon="1.609124">
        <ele>149.5</ele>
        <time>2014-04-17T18:15:14Z</time>
      </trkpt>
      <trkpt lat="43.442019" lon="1.608999">
        <ele>149.6</ele>
        <time>2014-04-17T18:15:26Z</time>
      </trkpt>
      <trkpt lat="43.442101" lon="1.608863">
        <ele>149.4</ele>
        <time>2014-04-17T18:15:36Z</time>
      </trkpt>
      <trkpt lat="43.442180" lon="1.608749">
        <ele>149.5</ele>
        <time>2014-04-17T18:15:47Z</time>
      </trkpt>
      <trkpt lat="43.442248" lon="1.608639">
        <ele>149.5</ele>
        <time>2014-04-17T18:15:59Z</time>
      </trkpt>
      <trkpt lat="43.442335" lon="1.608514">
        <ele>149.5</ele>
        <time>2014-04-17T18:16:10Z</time>
      </trkpt>
      <trkpt lat="43.442417" lon="1.608419">
        <ele>149.4</ele>
        <time>2014-04-17T18:16:21Z</time>
      </trkpt>
      <trkpt lat="43.442495" lon="1.608291">
        <ele>149.4</ele>
        <time>2014-04-17T18:16:32Z</time>
      </trkpt>
      <trkpt lat="43.442583" lon="1.608188">
        <ele>149.6</ele>
        <time>2014-04-17T18:16:43Z</time>
      </trkpt>
      <trkpt lat="43.442673" lon="1.608087">
        <ele>149.4</ele>
        <time>2014-04-17T18:16:54Z</time>
      </trkpt>
      <trkpt lat="43.442755" lon="1.607967">
        <ele>149.3</ele>
        <time>2014-04-17T18:17:04Z</time>
      </trkpt>
      <trkpt lat="43.442852" lon="1.607869">
        <ele>149.2</ele>
        <time>2014-04-17T18:17:14Z</time>
      </trkpt>
      <trkpt lat="43.442940" lon="1.607795">
        <ele>149.2</ele>
        <time>2014-04-17T18:17:23Z</time>
      </trkpt>
      <trkpt lat="43.443028" lon="1.607728">
        <ele>149.1</ele>
        <time>2014-04-17T18:17:32Z</time>
      </trkpt>
      <trkpt lat="43.443122" lon="1.607661">
        <ele>149.1</ele>
        <time>2014-04-17T18:17:41Z</time>
      </trkpt>
      <trkpt lat="43.443213" lon="1.607616">
        <ele>149.1</ele>
        <time>2014-04-17T18:17:49Z</time>
      </trkpt>
      <trkpt lat="43.443304" lon="1.607561">
        <ele>149.1</ele>
        <time>2014-04-17T18:17:58Z</time>
      </trkpt>
      <trkpt lat="43.443390" lon="1.607509">
        <ele>149.0</ele>
        <time>2014-04-17T18:18:07Z</time>
      </trkpt>
      <trkpt lat="43.443475" lon="1.607454">
        <ele>148.9</ele>
        <time>2014-04-17T18:18:17Z</time>
      </trkpt>
      <trkpt lat="43.443574" lon="1.607398">
        <ele>148.8</ele>
        <time>2014-04-17T18:18:27Z</time>
      </trkpt>
      <trkpt lat="43.443662" lon="1.607343">
        <ele>148.9</ele>
        <time>2014-04-17T18:18:37Z</time>
      </trkpt>
      <trkpt lat="43.443760" lon="1.607267">
        <ele>148.8</ele>
        <time>2014-04-17T18:18:48Z</time>
      </trkpt>
      <trkpt lat="43.443852" lon="1.607191">
        <ele>149.0</ele>
        <time>2014-04-17T18:18:58Z</time>
      </trkpt>
      <trkpt lat="43.443943" lon="1.607112">
        <ele>149.1</ele>
        <time>2014-04-17T18:19:08Z</time>
      </trkpt>
      <trkpt lat="43.444031" lon="1.607021">
        <ele>149.0</ele>
        <time>2014-04-17T18:19:19Z</time>
      </trkpt>
      <trkpt lat="43.444112" lon="1.606938">
        <ele>148.8</ele>
        <time>2014-04-17T18:19:32Z</time>
      </trkpt>
      <trkpt lat="43.444202" lon="1.606804">
        <ele>148.9</ele>
        <time>2014-04-17T18:19:46Z</time>
      </trkpt>
      <trkpt lat="43.444296" lon="1.606679">
        <ele>148.8</ele>
        <time>2014-04-17T18:19:59Z</time>
      </trkpt>
      <trkpt lat="43.444373" lon="1.606592">
        <ele>148.7</ele>
        <time>2014-04-17T18:20:16Z</time>
      </trkpt>
      <trkpt lat="43.444464" lon="1.606491">
        <ele>148.6</ele>
        <time>2014-04-17T18:20:26Z</time>
      </trkpt>
      <trkpt lat="43.444544" lon="1.606370">
        <ele>148.5</ele>
        <time>2014-04-17T18:20:39Z</time>
      </trkpt>
      <trkpt lat="43.444623" lon="1.606271">
        <ele>148.4</ele>
        <time>2014-04-17T18:20:50Z</time>
      </trkpt>
      <trkpt lat="43.444714" lon="1.606159">
        <ele>148.5</ele>
        <time>2014-04-17T18:21:00Z</time>
      </trkpt>
      <trkpt lat="43.444796" lon="1.606046">
        <ele>148.6</ele>
        <time>2014-04-17T18:21:10Z</time>
      </trkpt>
      <trkpt lat="43.444868" lon="1.605936">
        <ele>148.6</ele>
        <time>2014-04-17T18:21:20Z</time>
      </trkpt>
      <trkpt lat="43.444933" lon="1.605859">
        <ele>148.6</ele>
        <time>2014-04-17T18:21:29Z</time>
      </trkpt>
      <trkpt lat="43.445013" lon="1.605772">
        <ele>148.6</ele>
        <time>2014-04-17T18:21:39Z</time>
      </trkpt>
      <trkpt lat="43.445091" lon="1.605691">
        <ele>148.7</ele>
        <time>2014-04-17T18:21:49Z</time>
      </trkpt>
      <trkpt lat="43.445163" lon="1.605591">
        <ele>148.7</ele>
        <time>2014-04-17T18:21:58Z</time>
      </trkpt>
      <trkpt lat="43.445240" lon="1.605492">
        <ele>148.9</ele>
        <time>2014-04-17T18:22:07Z</time>
      </trkpt>
      <trkpt lat="43.445321" lon="1.605381">
        <ele>148.8</ele>
        <time>2014-04-17T18:22:16Z</time>
      </trkpt>
      <trkpt lat="43.445384" lon="1.605276">
        <ele>148.7</ele>
        <time>2014-04-17T18:22:27Z</time>
      </trkpt>
      <trkpt lat="43.445444" lon="1.605167">
        <ele>149.3</ele>
        <time>2014-04-17T18:22:37Z</time>
      </trkpt>
      <trkpt lat="43.445490" lon="1.605018">
        <ele>149.8</ele>
        <time>2014-04-17T18:22:52Z</time>
      </trkpt>
      <trkpt lat="43.445553" lon="1.604909">
        <ele>149.0</ele>
        <time>2014-04-17T18:23:03Z</time>
      </trkpt>
      <trkpt lat="43.445617" lon="1.604792">
        <ele>148.4</ele>
        <time>2014-04-17T18:23:14Z</time>
      </trkpt>
      <trkpt lat="43.445648" lon="1.604649">
        <ele>148.0</ele>
        <time>2014-04-17T18:23:26Z</time>
      </trkpt>
      <trkpt lat="43.445676" lon="1.604504">
        <ele>148.2</ele>
        <time>2014-04-17T18:23:36Z</time>
      </trkpt>
      <trkpt lat="43.445686" lon="1.604348">
        <ele>148.0</ele>
        <time>2014-04-17T18:23:50Z</time>
      </trkpt>
      <trkpt lat="43.445705" lon="1.604146">
        <ele>147.6</ele>
        <time>2014-04-17T18:24:07Z</time>
      </trkpt>
      <trkpt lat="43.445709" lon="1.603909">
        <ele>148.1</ele>
        <time>2014-04-17T18:24:23Z</time>
      </trkpt>
      <trkpt lat="43.445703" lon="1.603728">
        <ele>148.0</ele>
        <time>2014-04-17T18:24:36Z</time>
      </trkpt>
      <trkpt lat="43.445651" lon="1.603533">
        <ele>148.1</ele>
        <time>2014-04-17T18:24:51Z</time>
      </trkpt>
      <trkpt lat="43.445594" lon="1.603322">
        <ele>147.9</ele>
        <time>2014-04-17T18:25:07Z</time>
      </trkpt>
      <trkpt lat="43.445550" lon="1.603131">
        <ele>148.2</ele>
        <time>2014-04-17T18:25:20Z</time>
      </trkpt>
      <trkpt lat="43.445496" lon="1.602955">
        <ele>148.2</ele>
        <time>2014-04-17T18:25:32Z</time>
      </trkpt>
      <trkpt lat="43.445452" lon="1.602775">
        <ele>148.4</ele>
        <time>2014-04-17T18:25:44Z</time>
      </trkpt>
      <trkpt lat="43.445418" lon="1.602620">
        <ele>148.4</ele>
        <time>2014-04-17T18:25:55Z</time>
      </trkpt>
      <trkpt lat="43.445377" lon="1.602448">
        <ele>148.1</ele>
        <time>2014-04-17T18:26:12Z</time>
      </trkpt>
      <trkpt lat="43.445336" lon="1.602306">
        <ele>147.6</ele>
        <time>2014-04-17T18:26:24Z</time>
      </trkpt>
      <trkpt lat="43.445305" lon="1.602132">
        <ele>147.7</ele>
        <time>2014-04-17T18:26:41Z</time>
      </trkpt>
      <trkpt lat="43.445247" lon="1.601988">
        <ele>148.0</ele>
        <time>2014-04-17T18:27:00Z</time>
      </trkpt>
      <trkpt lat="43.445197" lon="1.601873">
        <ele>147.8</ele>
        <time>2014-04-17T18:27:17Z</time>
      </trkpt>
      <trkpt lat="43.445208" lon="1.601704">
        <ele>147.7</ele>
        <time>2014-04-17T18:27:40Z</time>
      </trkpt>
      <trkpt lat="43.445212" lon="1.601542">
        <ele>147.7</ele>
        <time>2014-04-17T18:27:52Z</time>
      </trkpt>
      <trkpt lat="43.445215" lon="1.601389">
        <ele>147.9</ele>
        <time>2014-04-17T18:28:03Z</time>
      </trkpt>
      <trkpt lat="43.445243" lon="1.601213">
        <ele>148.1</ele>
        <time>2014-04-17T18:28:16Z</time>
      </trkpt>
      <trkpt lat="43.445273" lon="1.600991">
        <ele>148.1</ele>
        <time>2014-04-17T18:28:28Z</time>
      </trkpt>
      <trkpt lat="43.445323" lon="1.600833">
        <ele>148.0</ele>
        <time>2014-04-17T18:28:41Z</time>
      </trkpt>
      <trkpt lat="43.445337" lon="1.600736">
        <ele>148.2</ele>
        <time>2014-04-17T18:28:58Z</time>
      </trkpt>
      <trkpt lat="43.445379" lon="1.600640">
        <ele>148.1</ele>
        <time>2014-04-17T18:29:15Z</time>
      </trkpt>
      <trkpt lat="43.445440" lon="1.600509">
        <ele>148.1</ele>
        <time>2014-04-17T18:29:29Z</time>
      </trkpt>
      <trkpt lat="43.445529" lon="1.600394">
        <ele>148.1</ele>
        <time>2014-04-17T18:29:42Z</time>
      </trkpt>
      <trkpt lat="43.445611" lon="1.600266">
        <ele>148.0</ele>
        <time>2014-04-17T18:29:54Z</time>
      </trkpt>
      <trkpt lat="43.445701" lon="1.600148">
        <ele>148.2</ele>
        <time>2014-04-17T18:30:04Z</time>
      </trkpt>
      <trkpt lat="43.445776" lon="1.600001">
        <ele>148.1</ele>
        <time>2014-04-17T18:30:15Z</time>
      </trkpt>
      <trkpt lat="43.445865" lon="1.599906">
        <ele>148.0</ele>
        <time>2014-04-17T18:30:26Z</time>
      </trkpt>
      <trkpt lat="43.445963" lon="1.599825">
        <ele>147.8</ele>
        <time>2014-04-17T18:30:36Z</time>
      </trkpt>
      <trkpt lat="43.446058" lon="1.599740">
        <ele>147.8</ele>
        <time>2014-04-17T18:30:46Z</time>
      </trkpt>
      <trkpt lat="43.446140" lon="1.599664">
        <ele>147.7</ele>
        <time>2014-04-17T18:30:55Z</time>
      </trkpt>
      <trkpt lat="43.446221" lon="1.599560">
        <ele>147.7</ele>
        <time>2014-04-17T18:31:05Z</time>
      </trkpt>
      <trkpt lat="43.446338" lon="1.599542">
        <ele>147.8</ele>
        <time>2014-04-17T18:31:15Z</time>
      </trkpt>
      <trkpt lat="43.446447" lon="1.599501">
        <ele>147.7</ele>
        <time>2014-04-17T18:31:26Z</time>
      </trkpt>
      <trkpt lat="43.446566" lon="1.599473">
        <ele>147.9</ele>
        <time>2014-04-17T18:31:39Z</time>
      </trkpt>
      <trkpt lat="43.446671" lon="1.599405">
        <ele>147.9</ele>
        <time>2014-04-17T18:31:50Z</time>
      </trkpt>
      <trkpt lat="43.446741" lon="1.599394">
        <ele>148.1</ele>
        <time>2014-04-17T18:32:01Z</time>
      </trkpt>
      <trkpt lat="43.446875" lon="1.599340">
        <ele>147.8</ele>
        <time>2014-04-17T18:32:13Z</time>
      </trkpt>
      <trkpt lat="43.446988" lon="1.599288">
        <ele>148.1</ele>
        <time>2014-04-17T18:32:27Z</time>
      </trkpt>
      <trkpt lat="43.447002" lon="1.599250">
        <ele>151.3</ele>
        <time>2014-04-17T18:32:55Z</time>
      </trkpt>
      <trkpt lat="43.446968" lon="1.599121">
        <ele>151.5</ele>
        <time>2014-04-17T18:33:11Z</time>
      </trkpt>
      <trkpt lat="43.446928" lon="1.599152">
        <ele>147.8</ele>
        <time>2014-04-17T18:33:49Z</time>
      </trkpt>
      <trkpt lat="43.446963" lon="1.599002">
        <ele>148.8</ele>
        <time>2014-04-17T18:34:08Z</time>
      </trkpt>
      <trkpt lat="43.446959" lon="1.598894">
        <ele>149.1</ele>
        <time>2014-04-17T18:34:37Z</time>
      </trkpt>
      <trkpt lat="43.446905" lon="1.598775">
        <ele>148.8</ele>
        <time>2014-04-17T18:34:54Z</time>
      </trkpt>
      <trkpt lat="43.446868" lon="1.598609">
        <ele>148.9</ele>
        <time>2014-04-17T18:35:09Z</time>
      </trkpt>
      <trkpt lat="43.446793" lon="1.598457">
        <ele>149.3</ele>
        <time>2014-04-17T18:35:24Z</time>
      </trkpt>
      <trkpt lat="43.446696" lon="1.598567">
        <ele>149.4</ele>
        <time>2014-04-17T18:35:40Z</time>
      </trkpt>
      <trkpt lat="43.446576" lon="1.598684">
        <ele>149.3</ele>
        <time>2014-04-17T18:35:54Z</time>
      </trkpt>
      <trkpt lat="43.446476" lon="1.598761">
        <ele>149.2</ele>
        <time>2014-04-17T18:36:05Z</time>
      </trkpt>
      <trkpt lat="43.446363" lon="1.598893">
        <ele>149.0</ele>
        <time>2014-04-17T18:36:17Z</time>
      </trkpt>
      <trkpt lat="43.446266" lon="1.598993">
        <ele>148.8</ele>
        <time>2014-04-17T18:36:28Z</time>
      </trkpt>
      <trkpt lat="43.446163" lon="1.599071">
        <ele>149.3</ele>
        <time>2014-04-17T18:36:41Z</time>
      </trkpt>
      <trkpt lat="43.446053" lon="1.599209">
        <ele>149.0</ele>
        <time>2014-04-17T18:36:53Z</time>
      </trkpt>
      <trkpt lat="43.445964" lon="1.599342">
        <ele>149.3</ele>
        <time>2014-04-17T18:37:04Z</time>
      </trkpt>
      <trkpt lat="43.445873" lon="1.599457">
        <ele>149.1</ele>
        <time>2014-04-17T18:37:15Z</time>
      </trkpt>
      <trkpt lat="43.445788" lon="1.599582">
        <ele>149.4</ele>
        <time>2014-04-17T18:37:26Z</time>
      </trkpt>
      <trkpt lat="43.445696" lon="1.599688">
        <ele>149.7</ele>
        <time>2014-04-17T18:37:37Z</time>
      </trkpt>
      <trkpt lat="43.445609" lon="1.599801">
        <ele>149.7</ele>
        <time>2014-04-17T18:37:47Z</time>
      </trkpt>
      <trkpt lat="43.445522" lon="1.599909">
        <ele>149.7</ele>
        <time>2014-04-17T18:37:57Z</time>
      </trkpt>
      <trkpt lat="43.445434" lon="1.600016">
        <ele>150.0</ele>
        <time>2014-04-17T18:38:08Z</time>
      </trkpt>
      <trkpt lat="43.445338" lon="1.600106">
        <ele>150.1</ele>
        <time>2014-04-17T18:38:19Z</time>
      </trkpt>
      <trkpt lat="43.445243" lon="1.600220">
        <ele>150.8</ele>
        <time>2014-04-17T18:38:30Z</time>
      </trkpt>
      <trkpt lat="43.445143" lon="1.600297">
        <ele>150.9</ele>
        <time>2014-04-17T18:38:42Z</time>
      </trkpt>
      <trkpt lat="43.445032" lon="1.600367">
        <ele>151.1</ele>
        <time>2014-04-17T18:38:53Z</time>
      </trkpt>
      <trkpt lat="43.444922" lon="1.600422">
        <ele>151.6</ele>
        <time>2014-04-17T18:39:05Z</time>
      </trkpt>
      <trkpt lat="43.444815" lon="1.600482">
        <ele>151.8</ele>
        <time>2014-04-17T18:39:16Z</time>
      </trkpt>
      <trkpt lat="43.444695" lon="1.600531">
        <ele>151.7</ele>
        <time>2014-04-17T18:39:28Z</time>
      </trkpt>
      <trkpt lat="43.444589" lon="1.600586">
        <ele>151.3</ele>
        <time>2014-04-17T18:39:39Z</time>
      </trkpt>
      <trkpt lat="43.444463" lon="1.600671">
        <ele>150.9</ele>
        <time>2014-04-17T18:39:51Z</time>
      </trkpt>
      <trkpt lat="43.444344" lon="1.600742">
        <ele>150.3</ele>
        <time>2014-04-17T18:40:03Z</time>
      </trkpt>
      <trkpt lat="43.444212" lon="1.600810">
        <ele>150.1</ele>
        <time>2014-04-17T18:40:14Z</time>
      </trkpt>
      <trkpt lat="43.444087" lon="1.600825">
        <ele>150.0</ele>
        <time>2014-04-17T18:40:25Z</time>
      </trkpt>
      <trkpt lat="43.443959" lon="1.600815">
        <ele>149.9</ele>
        <time>2014-04-17T18:40:36Z</time>
      </trkpt>
      <trkpt lat="43.443834" lon="1.600770">
        <ele>149.9</ele>
        <time>2014-04-17T18:40:48Z</time>
      </trkpt>
      <trkpt lat="43.443723" lon="1.600707">
        <ele>150.0</ele>
        <time>2014-04-17T18:40:59Z</time>
      </trkpt>
      <trkpt lat="43.443607" lon="1.600634">
        <ele>149.8</ele>
        <time>2014-04-17T18:41:10Z</time>
      </trkpt>
      <trkpt lat="43.443500" lon="1.600558">
        <ele>149.9</ele>
        <time>2014-04-17T18:41:21Z</time>
      </trkpt>
      <trkpt lat="43.443444" lon="1.600458">
        <ele>149.9</ele>
        <time>2014-04-17T18:41:43Z</time>
      </trkpt>
      <trkpt lat="43.443336" lon="1.600366">
        <ele>149.7</ele>
        <time>2014-04-17T18:41:56Z</time>
      </trkpt>
      <trkpt lat="43.443235" lon="1.600275">
        <ele>150.0</ele>
        <time>2014-04-17T18:42:07Z</time>
      </trkpt>
      <trkpt lat="43.443131" lon="1.600202">
        <ele>149.8</ele>
        <time>2014-04-17T18:42:18Z</time>
      </trkpt>
      <trkpt lat="43.443023" lon="1.600164">
        <ele>150.0</ele>
        <time>2014-04-17T18:42:29Z</time>
      </trkpt>
      <trkpt lat="43.442905" lon="1.600105">
        <ele>149.9</ele>
        <time>2014-04-17T18:42:40Z</time>
      </trkpt>
      <trkpt lat="43.442807" lon="1.600085">
        <ele>149.7</ele>
        <time>2014-04-17T18:42:50Z</time>
      </trkpt>
      <trkpt lat="43.442686" lon="1.600048">
        <ele>149.6</ele>
        <time>2014-04-17T18:43:01Z</time>
      </trkpt>
      <trkpt lat="43.442560" lon="1.599997">
        <ele>149.5</ele>
        <time>2014-04-17T18:43:13Z</time>
      </trkpt>
      <trkpt lat="43.442431" lon="1.599980">
        <ele>150.0</ele>
        <time>2014-04-17T18:43:24Z</time>
      </trkpt>
      <trkpt lat="43.442320" lon="1.599946">
        <ele>150.1</ele>
        <time>2014-04-17T18:43:35Z</time>
      </trkpt>
      <trkpt lat="43.442210" lon="1.599894">
        <ele>150.0</ele>
        <time>2014-04-17T18:43:46Z</time>
      </trkpt>
      <trkpt lat="43.442083" lon="1.599845">
        <ele>149.9</ele>
        <time>2014-04-17T18:43:59Z</time>
      </trkpt>
      <trkpt lat="43.441960" lon="1.599820">
        <ele>150.1</ele>
        <time>2014-04-17T18:44:10Z</time>
      </trkpt>
      <trkpt lat="43.441848" lon="1.599771">
        <ele>150.3</ele>
        <time>2014-04-17T18:44:22Z</time>
      </trkpt>
      <trkpt lat="43.441747" lon="1.599678">
        <ele>150.6</ele>
        <time>2014-04-17T18:44:32Z</time>
      </trkpt>
      <trkpt lat="43.441670" lon="1.599517">
        <ele>151.0</ele>
        <time>2014-04-17T18:44:43Z</time>
      </trkpt>
      <trkpt lat="43.441552" lon="1.599465">
        <ele>151.1</ele>
        <time>2014-04-17T18:44:54Z</time>
      </trkpt>
      <trkpt lat="43.441436" lon="1.599419">
        <ele>151.3</ele>
        <time>2014-04-17T18:45:05Z</time>
      </trkpt>
      <trkpt lat="43.441315" lon="1.599393">
        <ele>151.5</ele>
        <time>2014-04-17T18:45:19Z</time>
      </trkpt>
      <trkpt lat="43.441172" lon="1.599298">
        <ele>151.9</ele>
        <time>2014-04-17T18:45:32Z</time>
      </trkpt>
      <trkpt lat="43.441047" lon="1.599249">
        <ele>152.5</ele>
        <time>2014-04-17T18:45:43Z</time>
      </trkpt>
      <trkpt lat="43.440933" lon="1.599172">
        <ele>153.0</ele>
        <time>2014-04-17T18:45:54Z</time>
      </trkpt>
      <trkpt lat="43.440824" lon="1.599118">
        <ele>153.4</ele>
        <time>2014-04-17T18:46:03Z</time>
      </trkpt>
      <trkpt lat="43.440700" lon="1.599074">
        <ele>153.9</ele>
        <time>2014-04-17T18:46:17Z</time>
      </trkpt>
      <trkpt lat="43.440579" lon="1.599005">
        <ele>154.6</ele>
        <time>2014-04-17T18:46:30Z</time>
      </trkpt>
      <trkpt lat="43.440487" lon="1.598927">
        <ele>154.9</ele>
        <time>2014-04-17T18:46:40Z</time>
      </trkpt>
      <trkpt lat="43.440388" lon="1.598843">
        <ele>155.6</ele>
        <time>2014-04-17T18:46:50Z</time>
      </trkpt>
      <trkpt lat="43.440286" lon="1.598772">
        <ele>155.7</ele>
        <time>2014-04-17T18:47:00Z</time>
      </trkpt>
      <trkpt lat="43.440196" lon="1.598696">
        <ele>155.8</ele>
        <time>2014-04-17T18:47:10Z</time>
      </trkpt>
      <trkpt lat="43.440132" lon="1.598591">
        <ele>156.4</ele>
        <time>2014-04-17T18:47:20Z</time>
      </trkpt>
      <trkpt lat="43.440084" lon="1.598468">
        <ele>156.6</ele>
        <time>2014-04-17T18:47:32Z</time>
      </trkpt>
      <trkpt lat="43.440083" lon="1.598300">
        <ele>157.2</ele>
        <time>2014-04-17T18:47:46Z</time>
      </trkpt>
      <trkpt lat="43.440031" lon="1.598124">
        <ele>157.6</ele>
        <time>2014-04-17T18:47:57Z</time>
      </trkpt>
      <trkpt lat="43.439945" lon="1.597984">
        <ele>158.2</ele>
        <time>2014-04-17T18:48:11Z</time>
      </trkpt>
      <trkpt lat="43.439873" lon="1.597852">
        <ele>158.8</ele>
        <time>2014-04-17T18:48:22Z</time>
      </trkpt>
      <trkpt lat="43.439809" lon="1.597708">
        <ele>159.0</ele>
        <time>2014-04-17T18:48:34Z</time>
      </trkpt>
      <trkpt lat="43.439740" lon="1.597569">
        <ele>159.2</ele>
        <time>2014-04-17T18:48:45Z</time>
      </trkpt>
      <trkpt lat="43.439633" lon="1.597408">
        <ele>159.4</ele>
        <time>2014-04-17T18:49:01Z</time>
      </trkpt>
      <trkpt lat="43.439542" lon="1.597258">
        <ele>159.6</ele>
        <time>2014-04-17T18:49:12Z</time>
      </trkpt>
      <trkpt lat="43.439424" lon="1.597145">
        <ele>159.4</ele>
        <time>2014-04-17T18:49:23Z</time>
      </trkpt>
      <trkpt lat="43.439316" lon="1.597048">
        <ele>158.9</ele>
        <time>2014-04-17T18:49:32Z</time>
      </trkpt>
      <trkpt lat="43.439220" lon="1.596988">
        <ele>158.8</ele>
        <time>2014-04-17T18:49:41Z</time>
      </trkpt>
      <trkpt lat="43.439128" lon="1.596927">
        <ele>158.1</ele>
        <time>2014-04-17T18:49:51Z</time>
      </trkpt>
      <trkpt lat="43.439141" lon="1.596796">
        <ele>157.8</ele>
        <time>2014-04-17T18:50:05Z</time>
      </trkpt>
      <trkpt lat="43.439185" lon="1.596618">
        <ele>157.6</ele>
        <time>2014-04-17T18:50:19Z</time>
      </trkpt>
      <trkpt lat="43.439257" lon="1.596435">
        <ele>157.7</ele>
        <time>2014-04-17T18:50:32Z</time>
      </trkpt>
      <trkpt lat="43.439315" lon="1.596250">
        <ele>157.7</ele>
        <time>2014-04-17T18:50:43Z</time>
      </trkpt>
      <trkpt lat="43.439379" lon="1.596081">
        <ele>157.6</ele>
        <time>2014-04-17T18:50:54Z</time>
      </trkpt>
      <trkpt lat="43.439436" lon="1.595936">
        <ele>157.5</ele>
        <time>2014-04-17T18:51:04Z</time>
      </trkpt>
      <trkpt lat="43.439516" lon="1.595784">
        <ele>157.3</ele>
        <time>2014-04-17T18:51:14Z</time>
      </trkpt>
      <trkpt lat="43.439594" lon="1.595683">
        <ele>157.5</ele>
        <time>2014-04-17T18:51:23Z</time>
      </trkpt>
      <trkpt lat="43.439676" lon="1.595587">
        <ele>157.8</ele>
        <time>2014-04-17T18:51:33Z</time>
      </trkpt>
      <trkpt lat="43.439737" lon="1.595470">
        <ele>157.7</ele>
        <time>2014-04-17T18:51:42Z</time>
      </trkpt>
      <trkpt lat="43.439797" lon="1.595383">
        <ele>157.9</ele>
        <time>2014-04-17T18:51:51Z</time>
      </trkpt>
      <trkpt lat="43.439887" lon="1.595306">
        <ele>158.1</ele>
        <time>2014-04-17T18:52:01Z</time>
      </trkpt>
      <trkpt lat="43.439966" lon="1.595220">
        <ele>158.5</ele>
        <time>2014-04-17T18:52:11Z</time>
      </trkpt>
      <trkpt lat="43.440044" lon="1.595100">
        <ele>158.7</ele>
        <time>2014-04-17T18:52:21Z</time>
      </trkpt>
      <trkpt lat="43.440164" lon="1.594964">
        <ele>159.0</ele>
        <time>2014-04-17T18:52:32Z</time>
      </trkpt>
      <trkpt lat="43.440250" lon="1.594906">
        <ele>159.5</ele>
        <time>2014-04-17T18:52:41Z</time>
      </trkpt>
      <trkpt lat="43.440319" lon="1.594800">
        <ele>160.0</ele>
        <time>2014-04-17T18:52:52Z</time>
      </trkpt>
      <trkpt lat="43.440380" lon="1.594710">
        <ele>160.4</ele>
        <time>2014-04-17T18:53:04Z</time>
      </trkpt>
      <trkpt lat="43.440464" lon="1.594577">
        <ele>161.3</ele>
        <time>2014-04-17T18:53:16Z</time>
      </trkpt>
      <trkpt lat="43.440574" lon="1.594444">
        <ele>161.8</ele>
        <time>2014-04-17T18:53:26Z</time>
      </trkpt>
      <trkpt lat="43.440661" lon="1.594311">
        <ele>162.6</ele>
        <time>2014-04-17T18:53:35Z</time>
      </trkpt>
      <trkpt lat="43.440752" lon="1.594234">
        <ele>163.3</ele>
        <time>2014-04-17T18:53:45Z</time>
      </trkpt>
      <trkpt lat="43.440842" lon="1.594138">
        <ele>164.1</ele>
        <time>2014-04-17T18:53:55Z</time>
      </trkpt>
      <trkpt lat="43.440908" lon="1.594027">
        <ele>165.0</ele>
        <time>2014-04-17T18:54:05Z</time>
      </trkpt>
      <trkpt lat="43.440878" lon="1.593910">
        <ele>165.8</ele>
        <time>2014-04-17T18:54:15Z</time>
      </trkpt>
      <trkpt lat="43.440798" lon="1.593809">
        <ele>166.3</ele>
        <time>2014-04-17T18:54:27Z</time>
      </trkpt>
      <trkpt lat="43.440722" lon="1.593677">
        <ele>166.9</ele>
        <time>2014-04-17T18:54:36Z</time>
      </trkpt>
      <trkpt lat="43.440646" lon="1.593554">
        <ele>167.6</ele>
        <time>2014-04-17T18:54:46Z</time>
      </trkpt>
      <trkpt lat="43.440574" lon="1.593451">
        <ele>168.2</ele>
        <time>2014-04-17T18:54:56Z</time>
      </trkpt>
      <trkpt lat="43.440488" lon="1.593357">
        <ele>168.9</ele>
        <time>2014-04-17T18:55:06Z</time>
      </trkpt>
      <trkpt lat="43.440416" lon="1.593244">
        <ele>169.6</ele>
        <time>2014-04-17T18:55:16Z</time>
      </trkpt>
      <trkpt lat="43.440330" lon="1.593120">
        <ele>170.7</ele>
        <time>2014-04-17T18:55:27Z</time>
      </trkpt>
      <trkpt lat="43.440264" lon="1.593014">
        <ele>171.7</ele>
        <time>2014-04-17T18:55:36Z</time>
      </trkpt>
      <trkpt lat="43.440179" lon="1.592926">
        <ele>172.9</ele>
        <time>2014-04-17T18:55:47Z</time>
      </trkpt>
      <trkpt lat="43.440094" lon="1.592826">
        <ele>174.3</ele>
        <time>2014-04-17T18:55:58Z</time>
      </trkpt>
      <trkpt lat="43.440017" lon="1.592746">
        <ele>176.0</ele>
        <time>2014-04-17T18:56:10Z</time>
      </trkpt>
      <trkpt lat="43.439929" lon="1.592668">
        <ele>177.5</ele>
        <time>2014-04-17T18:56:25Z</time>
      </trkpt>
      <trkpt lat="43.439850" lon="1.592598">
        <ele>179.6</ele>
        <time>2014-04-17T18:56:38Z</time>
      </trkpt>
      <trkpt lat="43.439767" lon="1.592495">
        <ele>182.1</ele>
        <time>2014-04-17T18:56:53Z</time>
      </trkpt>
      <trkpt lat="43.439647" lon="1.592417">
        <ele>185.3</ele>
        <time>2014-04-17T18:57:10Z</time>
      </trkpt>
      <trkpt lat="43.439523" lon="1.592356">
        <ele>188.4</ele>
        <time>2014-04-17T18:57:28Z</time>
      </trkpt>
      <trkpt lat="43.439439" lon="1.592261">
        <ele>190.9</ele>
        <time>2014-04-17T18:57:42Z</time>
      </trkpt>
      <trkpt lat="43.439362" lon="1.592136">
        <ele>193.6</ele>
        <time>2014-04-17T18:57:59Z</time>
      </trkpt>
      <trkpt lat="43.439374" lon="1.591974">
        <ele>195.2</ele>
        <time>2014-04-17T18:58:12Z</time>
      </trkpt>
      <trkpt lat="43.439398" lon="1.591844">
        <ele>196.6</ele>
        <time>2014-04-17T18:58:23Z</time>
      </trkpt>
      <trkpt lat="43.439419" lon="1.591717">
        <ele>197.9</ele>
        <time>2014-04-17T18:58:35Z</time>
      </trkpt>
      <trkpt lat="43.439335" lon="1.591645">
        <ele>199.6</ele>
        <time>2014-04-17T18:58:47Z</time>
      </trkpt>
      <trkpt lat="43.439235" lon="1.591582">
        <ele>201.4</ele>
        <time>2014-04-17T18:58:59Z</time>
      </trkpt>
      <trkpt lat="43.439138" lon="1.591518">
        <ele>203.6</ele>
        <time>2014-04-17T18:59:13Z</time>
      </trkpt>
      <trkpt lat="43.439056" lon="1.591436">
        <ele>206.2</ele>
        <time>2014-04-17T18:59:28Z</time>
      </trkpt>
      <trkpt lat="43.438989" lon="1.591340">
        <ele>208.4</ele>
        <time>2014-04-17T18:59:42Z</time>
      </trkpt>
      <trkpt lat="43.438924" lon="1.591236">
        <ele>210.4</ele>
        <time>2014-04-17T18:59:56Z</time>
      </trkpt>
      <trkpt lat="43.438899" lon="1.591099">
        <ele>212.5</ele>
        <time>2014-04-17T19:00:09Z</time>
      </trkpt>
      <trkpt lat="43.438912" lon="1.590975">
        <ele>214.1</ele>
        <time>2014-04-17T19:00:21Z</time>
      </trkpt>
      <trkpt lat="43.438924" lon="1.590838">
        <ele>215.6</ele>
        <time>2014-04-17T19:00:33Z</time>
      </trkpt>
      <trkpt lat="43.438954" lon="1.590705">
        <ele>217.1</ele>
        <time>2014-04-17T19:00:45Z</time>
      </trkpt>
      <trkpt lat="43.438921" lon="1.590557">
        <ele>218.9</ele>
        <time>2014-04-17T19:00:58Z</time>
      </trkpt>
      <trkpt lat="43.438909" lon="1.590399">
        <ele>220.4</ele>
        <time>2014-04-17T19:01:08Z</time>
      </trkpt>
      <trkpt lat="43.438915" lon="1.590259">
        <ele>222.3</ele>
        <time>2014-04-17T19:01:19Z</time>
      </trkpt>
      <trkpt lat="43.438918" lon="1.590170">
        <ele>223.7</ele>
        <time>2014-04-17T19:01:31Z</time>
      </trkpt>
      <trkpt lat="43.438846" lon="1.590074">
        <ele>225.0</ele>
        <time>2014-04-17T19:01:42Z</time>
      </trkpt>
      <trkpt lat="43.438780" lon="1.589974">
        <ele>225.9</ele>
        <time>2014-04-17T19:01:53Z</time>
      </trkpt>
      <trkpt lat="43.438689" lon="1.589863">
        <ele>227.2</ele>
        <time>2014-04-17T19:02:04Z</time>
      </trkpt>
      <trkpt lat="43.438601" lon="1.589784">
        <ele>228.2</ele>
        <time>2014-04-17T19:02:14Z</time>
      </trkpt>
      <trkpt lat="43.438504" lon="1.589710">
        <ele>228.8</ele>
        <time>2014-04-17T19:02:25Z</time>
      </trkpt>
      <trkpt lat="43.438386" lon="1.589687">
        <ele>229.2</ele>
        <time>2014-04-17T19:02:36Z</time>
      </trkpt>
      <trkpt lat="43.438309" lon="1.589615">
        <ele>229.4</ele>
        <time>2014-04-17T19:02:47Z</time>
      </trkpt>
      <trkpt lat="43.438316" lon="1.589466">
        <ele>230.4</ele>
        <time>2014-04-17T19:02:58Z</time>
      </trkpt>
      <trkpt lat="43.438344" lon="1.589331">
        <ele>231.8</ele>
        <time>2014-04-17T19:03:09Z</time>
      </trkpt>
      <trkpt lat="43.438387" lon="1.589202">
        <ele>233.7</ele>
        <time>2014-04-17T19:03:21Z</time>
      </trkpt>
      <trkpt lat="43.438399" lon="1.589082">
        <ele>236.1</ele>
        <time>2014-04-17T19:03:36Z</time>
      </trkpt>
      <trkpt lat="43.438432" lon="1.588945">
        <ele>238.9</ele>
        <time>2014-04-17T19:03:50Z</time>
      </trkpt>
      <trkpt lat="43.438466" lon="1.588811">
        <ele>241.0</ele>
        <time>2014-04-17T19:04:02Z</time>
      </trkpt>
      <trkpt lat="43.438497" lon="1.588680">
        <ele>243.0</ele>
        <time>2014-04-17T19:04:13Z</time>
      </trkpt>
      <trkpt lat="43.438542" lon="1.588556">
        <ele>245.6</ele>
        <time>2014-04-17T19:04:26Z</time>
      </trkpt>
      <trkpt lat="43.438610" lon="1.588443">
        <ele>246.7</ele>
        <time>2014-04-17T19:04:44Z</time>
      </trkpt>
      <trkpt lat="43.438664" lon="1.588352">
        <ele>247.0</ele>
        <time>2014-04-17T19:04:58Z</time>
      </trkpt>
      <trkpt lat="43.438682" lon="1.588244">
        <ele>246.9</ele>
        <time>2014-04-17T19:05:54Z</time>
      </trkpt>
      <trkpt lat="43.438661" lon="1.588231">
        <ele>246.5</ele>
        <time>2014-04-17T19:08:30Z</time>
      </trkpt>
      <trkpt lat="43.438645" lon="1.588305">
        <ele>246.2</ele>
        <time>2014-04-17T19:09:53Z</time>
      </trkpt>
      <trkpt lat="43.438585" lon="1.588427">
        <ele>246.0</ele>
        <time>2014-04-17T19:10:06Z</time>
      </trkpt>
      <trkpt lat="43.438505" lon="1.588542">
        <ele>245.4</ele>
        <time>2014-04-17T19:10:17Z</time>
      </trkpt>
      <trkpt lat="43.438469" lon="1.588671">
        <ele>244.4</ele>
        <time>2014-04-17T19:10:42Z</time>
      </trkpt>
      <trkpt lat="43.438436" lon="1.588814">
        <ele>242.7</ele>
        <time>2014-04-17T19:10:55Z</time>
      </trkpt>
      <trkpt lat="43.438403" lon="1.588946">
        <ele>240.5</ele>
        <time>2014-04-17T19:11:09Z</time>
      </trkpt>
      <trkpt lat="43.438356" lon="1.589069">
        <ele>238.2</ele>
        <time>2014-04-17T19:11:23Z</time>
      </trkpt>
      <trkpt lat="43.438318" lon="1.589202">
        <ele>236.1</ele>
        <time>2014-04-17T19:11:35Z</time>
      </trkpt>
      <trkpt lat="43.438292" lon="1.589321">
        <ele>233.8</ele>
        <time>2014-04-17T19:11:45Z</time>
      </trkpt>
      <trkpt lat="43.438256" lon="1.589459">
        <ele>231.2</ele>
        <time>2014-04-17T19:11:55Z</time>
      </trkpt>
      <trkpt lat="43.438232" lon="1.589585">
        <ele>230.0</ele>
        <time>2014-04-17T19:12:03Z</time>
      </trkpt>
      <trkpt lat="43.438144" lon="1.589623">
        <ele>228.8</ele>
        <time>2014-04-17T19:12:13Z</time>
      </trkpt>
      <trkpt lat="43.438029" lon="1.589596">
        <ele>228.6</ele>
        <time>2014-04-17T19:12:24Z</time>
      </trkpt>
      <trkpt lat="43.437918" lon="1.589578">
        <ele>228.9</ele>
        <time>2014-04-17T19:12:35Z</time>
      </trkpt>
      <trkpt lat="43.437822" lon="1.589555">
        <ele>229.1</ele>
        <time>2014-04-17T19:12:45Z</time>
      </trkpt>
      <trkpt lat="43.437729" lon="1.589531">
        <ele>229.1</ele>
        <time>2014-04-17T19:12:55Z</time>
      </trkpt>
      <trkpt lat="43.437633" lon="1.589519">
        <ele>229.2</ele>
        <time>2014-04-17T19:13:05Z</time>
      </trkpt>
      <trkpt lat="43.437529" lon="1.589519">
        <ele>229.4</ele>
        <time>2014-04-17T19:13:16Z</time>
      </trkpt>
      <trkpt lat="43.437429" lon="1.589507">
        <ele>228.9</ele>
        <time>2014-04-17T19:13:27Z</time>
      </trkpt>
      <trkpt lat="43.437317" lon="1.589494">
        <ele>228.9</ele>
        <time>2014-04-17T19:13:38Z</time>
      </trkpt>
      <trkpt lat="43.437221" lon="1.589464">
        <ele>228.7</ele>
        <time>2014-04-17T19:13:48Z</time>
      </trkpt>
      <trkpt lat="43.437129" lon="1.589439">
        <ele>227.9</ele>
        <time>2014-04-17T19:13:59Z</time>
      </trkpt>
      <trkpt lat="43.437042" lon="1.589412">
        <ele>226.9</ele>
        <time>2014-04-17T19:14:13Z</time>
      </trkpt>
      <trkpt lat="43.436930" lon="1.589395">
        <ele>226.1</ele>
        <time>2014-04-17T19:14:24Z</time>
      </trkpt>
      <trkpt lat="43.436839" lon="1.589376">
        <ele>225.4</ele>
        <time>2014-04-17T19:14:34Z</time>
      </trkpt>
      <trkpt lat="43.436740" lon="1.589360">
        <ele>224.7</ele>
        <time>2014-04-17T19:14:44Z</time>
      </trkpt>
      <trkpt lat="43.436631" lon="1.589354">
        <ele>224.0</ele>
        <time>2014-04-17T19:14:54Z</time>
      </trkpt>
      <trkpt lat="43.436529" lon="1.589343">
        <ele>223.4</ele>
        <time>2014-04-17T19:15:04Z</time>
      </trkpt>
      <trkpt lat="43.436429" lon="1.589349">
        <ele>222.6</ele>
        <time>2014-04-17T19:15:16Z</time>
      </trkpt>
      <trkpt lat="43.436330" lon="1.589321">
        <ele>222.1</ele>
        <time>2014-04-17T19:15:27Z</time>
      </trkpt>
      <trkpt lat="43.436233" lon="1.589316">
        <ele>221.4</ele>
        <time>2014-04-17T19:15:37Z</time>
      </trkpt>
      <trkpt lat="43.436129" lon="1.589339">
        <ele>220.5</ele>
        <time>2014-04-17T19:15:47Z</time>
      </trkpt>
      <trkpt lat="43.436011" lon="1.589349">
        <ele>219.4</ele>
        <time>2014-04-17T19:15:57Z</time>
      </trkpt>
      <trkpt lat="43.435920" lon="1.589344">
        <ele>218.4</ele>
        <time>2014-04-17T19:16:08Z</time>
      </trkpt>
      <trkpt lat="43.435829" lon="1.589375">
        <ele>217.6</ele>
        <time>2014-04-17T19:16:19Z</time>
      </trkpt>
      <trkpt lat="43.435786" lon="1.589503">
        <ele>216.8</ele>
        <time>2014-04-17T19:16:29Z</time>
      </trkpt>
      <trkpt lat="43.435771" lon="1.589638">
        <ele>216.5</ele>
        <time>2014-04-17T19:16:39Z</time>
      </trkpt>
      <trkpt lat="43.435754" lon="1.589759">
        <ele>216.0</ele>
        <time>2014-04-17T19:16:49Z</time>
      </trkpt>
      <trkpt lat="43.435712" lon="1.589887">
        <ele>215.1</ele>
        <time>2014-04-17T19:17:01Z</time>
      </trkpt>
      <trkpt lat="43.435624" lon="1.589950">
        <ele>214.8</ele>
        <time>2014-04-17T19:17:12Z</time>
      </trkpt>
      <trkpt lat="43.435527" lon="1.589945">
        <ele>214.6</ele>
        <time>2014-04-17T19:17:23Z</time>
      </trkpt>
      <trkpt lat="43.435431" lon="1.589884">
        <ele>214.2</ele>
        <time>2014-04-17T19:17:33Z</time>
      </trkpt>
      <trkpt lat="43.435328" lon="1.589820">
        <ele>213.0</ele>
        <time>2014-04-17T19:17:43Z</time>
      </trkpt>
      <trkpt lat="43.435246" lon="1.589750">
        <ele>212.0</ele>
        <time>2014-04-17T19:17:52Z</time>
      </trkpt>
      <trkpt lat="43.435172" lon="1.589664">
        <ele>210.7</ele>
        <time>2014-04-17T19:18:02Z</time>
      </trkpt>
      <trkpt lat="43.435089" lon="1.589580">
        <ele>209.2</ele>
        <time>2014-04-17T19:18:13Z</time>
      </trkpt>
      <trkpt lat="43.435008" lon="1.589500">
        <ele>208.0</ele>
        <time>2014-04-17T19:18:23Z</time>
      </trkpt>
      <trkpt lat="43.434810" lon="1.589542">
        <ele>203.1</ele>
        <time>2014-04-17T19:25:11Z</time>
      </trkpt>
      <trkpt lat="43.434711" lon="1.589614">
        <ele>202.0</ele>
        <time>2014-04-17T19:25:25Z</time>
      </trkpt>
      <trkpt lat="43.434635" lon="1.589716">
        <ele>201.4</ele>
        <time>2014-04-17T19:25:37Z</time>
      </trkpt>
      <trkpt lat="43.434549" lon="1.589841">
        <ele>200.3</ele>
        <time>2014-04-17T19:25:49Z</time>
      </trkpt>
      <trkpt lat="43.434487" lon="1.589936">
        <ele>199.6</ele>
        <time>2014-04-17T19:26:00Z</time>
      </trkpt>
      <trkpt lat="43.434396" lon="1.590040">
        <ele>198.5</ele>
        <time>2014-04-17T19:26:15Z</time>
      </trkpt>
      <trkpt lat="43.434323" lon="1.590161">
        <ele>197.6</ele>
        <time>2014-04-17T19:26:28Z</time>
      </trkpt>
      <trkpt lat="43.434313" lon="1.590167">
        <ele>197.0</ele>
        <time>2014-04-17T19:27:33Z</time>
      </trkpt>
      <trkpt lat="43.434275" lon="1.590222">
        <ele>196.2</ele>
        <time>2014-04-17T19:28:53Z</time>
      </trkpt>
      <trkpt lat="43.434210" lon="1.590301">
        <ele>196.3</ele>
        <time>2014-04-17T19:29:13Z</time>
      </trkpt>
      <trkpt lat="43.434146" lon="1.590392">
        <ele>195.1</ele>
        <time>2014-04-17T19:29:25Z</time>
      </trkpt>
      <trkpt lat="43.434090" lon="1.590509">
        <ele>193.9</ele>
        <time>2014-04-17T19:29:37Z</time>
      </trkpt>
      <trkpt lat="43.433996" lon="1.590613">
        <ele>192.8</ele>
        <time>2014-04-17T19:29:49Z</time>
      </trkpt>
      <trkpt lat="43.433931" lon="1.590715">
        <ele>191.9</ele>
        <time>2014-04-17T19:30:01Z</time>
      </trkpt>
      <trkpt lat="43.433869" lon="1.590814">
        <ele>191.1</ele>
        <time>2014-04-17T19:30:14Z</time>
      </trkpt>
      <trkpt lat="43.433811" lon="1.590943">
        <ele>190.7</ele>
        <time>2014-04-17T19:30:27Z</time>
      </trkpt>
      <trkpt lat="43.433764" lon="1.591069">
        <ele>190.4</ele>
        <time>2014-04-17T19:30:39Z</time>
      </trkpt>
      <trkpt lat="43.433723" lon="1.591230">
        <ele>190.1</ele>
        <time>2014-04-17T19:30:53Z</time>
      </trkpt>
      <trkpt lat="43.433686" lon="1.591357">
        <ele>189.7</ele>
        <time>2014-04-17T19:31:04Z</time>
      </trkpt>
      <trkpt lat="43.433674" lon="1.591499">
        <ele>189.2</ele>
        <time>2014-04-17T19:31:17Z</time>
      </trkpt>
      <trkpt lat="43.433670" lon="1.591632">
        <ele>189.1</ele>
        <time>2014-04-17T19:31:31Z</time>
      </trkpt>
      <trkpt lat="43.433642" lon="1.591772">
        <ele>189.2</ele>
        <time>2014-04-17T19:31:46Z</time>
      </trkpt>
      <trkpt lat="43.433612" lon="1.591950">
        <ele>188.7</ele>
        <time>2014-04-17T19:32:01Z</time>
      </trkpt>
      <trkpt lat="43.433579" lon="1.592137">
        <ele>188.4</ele>
        <time>2014-04-17T19:32:17Z</time>
      </trkpt>
      <trkpt lat="43.433644" lon="1.592267">
        <ele>189.2</ele>
        <time>2014-04-17T19:32:34Z</time>
      </trkpt>
      <trkpt lat="43.433745" lon="1.592293">
        <ele>190.5</ele>
        <time>2014-04-17T19:32:48Z</time>
      </trkpt>
      <trkpt lat="43.433820" lon="1.592378">
        <ele>191.2</ele>
        <time>2014-04-17T19:33:14Z</time>
      </trkpt>
      <trkpt lat="43.433884" lon="1.592498">
        <ele>190.9</ele>
        <time>2014-04-17T19:33:28Z</time>
      </trkpt>
      <trkpt lat="43.433940" lon="1.592592">
        <ele>191.0</ele>
        <time>2014-04-17T19:33:42Z</time>
      </trkpt>
      <trkpt lat="43.434039" lon="1.592627">
        <ele>191.3</ele>
        <time>2014-04-17T19:33:52Z</time>
      </trkpt>
      <trkpt lat="43.434130" lon="1.592671">
        <ele>191.9</ele>
        <time>2014-04-17T19:34:02Z</time>
      </trkpt>
      <trkpt lat="43.434225" lon="1.592699">
        <ele>191.9</ele>
        <time>2014-04-17T19:34:13Z</time>
      </trkpt>
      <trkpt lat="43.434329" lon="1.592740">
        <ele>191.9</ele>
        <time>2014-04-17T19:34:25Z</time>
      </trkpt>
      <trkpt lat="43.434411" lon="1.592788">
        <ele>191.4</ele>
        <time>2014-04-17T19:34:37Z</time>
      </trkpt>
      <trkpt lat="43.434443" lon="1.592878">
        <ele>189.4</ele>
        <time>2014-04-17T19:34:58Z</time>
      </trkpt>
      <trkpt lat="43.434515" lon="1.592932">
        <ele>186.6</ele>
        <time>2014-04-17T19:35:18Z</time>
      </trkpt>
      <trkpt lat="43.434553" lon="1.593040">
        <ele>184.0</ele>
        <time>2014-04-17T19:35:41Z</time>
      </trkpt>
      <trkpt lat="43.434563" lon="1.593199">
        <ele>181.6</ele>
        <time>2014-04-17T19:36:02Z</time>
      </trkpt>
      <trkpt lat="43.434634" lon="1.593265">
        <ele>179.6</ele>
        <time>2014-04-17T19:36:24Z</time>
      </trkpt>
      <trkpt lat="43.434670" lon="1.593322">
        <ele>178.0</ele>
        <time>2014-04-17T19:36:43Z</time>
      </trkpt>
      <trkpt lat="43.434651" lon="1.593490">
        <ele>175.5</ele>
        <time>2014-04-17T19:37:02Z</time>
      </trkpt>
      <trkpt lat="43.434738" lon="1.593522">
        <ele>173.4</ele>
        <time>2014-04-17T19:37:17Z</time>
      </trkpt>
      <trkpt lat="43.434828" lon="1.593508">
        <ele>174.8</ele>
        <time>2014-04-17T19:37:37Z</time>
      </trkpt>
      <trkpt lat="43.434868" lon="1.593538">
        <ele>179.2</ele>
        <time>2014-04-17T19:38:00Z</time>
      </trkpt>
      <trkpt lat="43.434854" lon="1.593665">
        <ele>178.3</ele>
        <time>2014-04-17T19:38:17Z</time>
      </trkpt>
      <trkpt lat="43.434926" lon="1.593763">
        <ele>176.5</ele>
        <time>2014-04-17T19:38:36Z</time>
      </trkpt>
      <trkpt lat="43.435076" lon="1.593798">
        <ele>177.7</ele>
        <time>2014-04-17T19:38:52Z</time>
      </trkpt>
      <trkpt lat="43.435170" lon="1.593910">
        <ele>177.9</ele>
        <time>2014-04-17T19:39:05Z</time>
      </trkpt>
      <trkpt lat="43.435319" lon="1.594012">
        <ele>176.8</ele>
        <time>2014-04-17T19:39:21Z</time>
      </trkpt>
      <trkpt lat="43.435423" lon="1.594077">
        <ele>176.3</ele>
        <time>2014-04-17T19:39:35Z</time>
      </trkpt>
      <trkpt lat="43.435526" lon="1.594142">
        <ele>175.9</ele>
        <time>2014-04-17T19:39:49Z</time>
      </trkpt>
      <trkpt lat="43.435632" lon="1.594195">
        <ele>175.1</ele>
        <time>2014-04-17T19:40:02Z</time>
      </trkpt>
      <trkpt lat="43.435735" lon="1.594266">
        <ele>174.9</ele>
        <time>2014-04-17T19:40:16Z</time>
      </trkpt>
      <trkpt lat="43.435840" lon="1.594341">
        <ele>174.7</ele>
        <time>2014-04-17T19:40:28Z</time>
      </trkpt>
      <trkpt lat="43.435935" lon="1.594419">
        <ele>174.1</ele>
        <time>2014-04-17T19:40:42Z</time>
      </trkpt>
      <trkpt lat="43.436013" lon="1.594399">
        <ele>174.1</ele>
        <time>2014-04-17T19:41:07Z</time>
      </trkpt>
      <trkpt lat="43.436115" lon="1.594444">
        <ele>173.7</ele>
        <time>2014-04-17T19:41:20Z</time>
      </trkpt>
      <trkpt lat="43.436201" lon="1.594503">
        <ele>173.7</ele>
        <time>2014-04-17T19:41:32Z</time>
      </trkpt>
      <trkpt lat="43.436202" lon="1.594622">
        <ele>171.4</ele>
        <time>2014-04-17T19:41:53Z</time>
      </trkpt>
      <trkpt lat="43.436285" lon="1.594698">
        <ele>169.9</ele>
        <time>2014-04-17T19:42:15Z</time>
      </trkpt>
      <trkpt lat="43.436368" lon="1.594808">
        <ele>167.6</ele>
        <time>2014-04-17T19:42:31Z</time>
      </trkpt>
      <trkpt lat="43.436489" lon="1.594852">
        <ele>164.7</ele>
        <time>2014-04-17T19:42:48Z</time>
      </trkpt>
      <trkpt lat="43.436592" lon="1.594923">
        <ele>163.1</ele>
        <time>2014-04-17T19:43:02Z</time>
      </trkpt>
      <trkpt lat="43.436675" lon="1.594987">
        <ele>161.6</ele>
        <time>2014-04-17T19:43:21Z</time>
      </trkpt>
      <trkpt lat="43.436758" lon="1.595024">
        <ele>161.3</ele>
        <time>2014-04-17T19:43:40Z</time>
      </trkpt>
      <trkpt lat="43.436828" lon="1.595138">
        <ele>160.9</ele>
        <time>2014-04-17T19:43:56Z</time>
      </trkpt>
      <trkpt lat="43.436941" lon="1.595237">
        <ele>160.2</ele>
        <time>2014-04-17T19:44:12Z</time>
      </trkpt>
      <trkpt lat="43.437030" lon="1.595263">
        <ele>159.6</ele>
        <time>2014-04-17T19:44:27Z</time>
      </trkpt>
      <trkpt lat="43.437108" lon="1.595311">
        <ele>159.2</ele>
        <time>2014-04-17T19:44:43Z</time>
      </trkpt>
      <trkpt lat="43.437189" lon="1.595377">
        <ele>158.6</ele>
        <time>2014-04-17T19:44:57Z</time>
      </trkpt>
      <trkpt lat="43.437250" lon="1.595525">
        <ele>157.0</ele>
        <time>2014-04-17T19:45:11Z</time>
      </trkpt>
      <trkpt lat="43.437283" lon="1.595630">
        <ele>154.7</ele>
        <time>2014-04-17T19:45:22Z</time>
      </trkpt>
      <trkpt lat="43.437341" lon="1.595766">
        <ele>152.9</ele>
        <time>2014-04-17T19:45:37Z</time>
      </trkpt>
      <trkpt lat="43.437374" lon="1.595903">
        <ele>152.6</ele>
        <time>2014-04-17T19:45:53Z</time>
      </trkpt>
      <trkpt lat="43.437474" lon="1.596021">
        <ele>152.2</ele>
        <time>2014-04-17T19:46:07Z</time>
      </trkpt>
      <trkpt lat="43.437566" lon="1.596072">
        <ele>151.9</ele>
        <time>2014-04-17T19:46:23Z</time>
      </trkpt>
      <trkpt lat="43.437629" lon="1.596190">
        <ele>152.0</ele>
        <time>2014-04-17T19:46:39Z</time>
      </trkpt>
      <trkpt lat="43.437710" lon="1.596258">
        <ele>151.4</ele>
        <time>2014-04-17T19:46:52Z</time>
      </trkpt>
      <trkpt lat="43.437796" lon="1.596361">
        <ele>151.1</ele>
        <time>2014-04-17T19:47:04Z</time>
      </trkpt>
      <trkpt lat="43.437874" lon="1.596452">
        <ele>150.9</ele>
        <time>2014-04-17T19:47:15Z</time>
      </trkpt>
      <trkpt lat="43.437977" lon="1.596569">
        <ele>151.1</ele>
        <time>2014-04-17T19:47:38Z</time>
      </trkpt>
      <trkpt lat="43.438174" lon="1.596586">
        <ele>151.0</ele>
        <time>2014-04-17T19:47:54Z</time>
      </trkpt>
      <trkpt lat="43.438234" lon="1.596666">
        <ele>150.7</ele>
        <time>2014-04-17T19:48:13Z</time>
      </trkpt>
      <trkpt lat="43.438273" lon="1.596714">
        <ele>150.5</ele>
        <time>2014-04-17T19:48:37Z</time>
      </trkpt>
    </trkseg>
  </trk>
</gpx>

